createdAt,value
2023-02-23T00:01:24.409Z,74.61
2023-02-23T00:03:51.902Z,74.64
2023-02-23T00:06:19.483Z,74.78
2023-02-23T00:08:48.018Z,74.84
2023-02-23T00:11:16.000Z,74.96
2023-02-23T00:13:46.330Z,74.91
2023-02-23T00:16:16.770Z,75.01
2023-02-23T00:18:48.405Z,75.14
2023-02-23T00:21:16.426Z,75.11
2023-02-23T00:23:47.907Z,74.98
2023-02-23T00:26:14.890Z,74.83
2023-02-23T00:28:43.714Z,74.75
2023-02-23T00:31:11.840Z,75.00
2023-02-23T00:33:41.150Z,75.22
2023-02-23T00:36:13.641Z,75.21
2023-02-23T00:38:41.736Z,75.33
2023-02-23T00:41:12.463Z,75.40
2023-02-23T00:43:48.030Z,75.60
2023-02-23T00:46:19.091Z,75.43
2023-02-23T00:48:51.307Z,75.41
2023-02-23T00:51:19.504Z,75.50
2023-02-23T00:53:46.583Z,75.39
2023-02-23T00:56:14.378Z,75.48
2023-02-23T00:58:41.525Z,75.50
2023-02-23T01:01:09.865Z,75.60
2023-02-23T01:03:37.128Z,75.55
2023-02-23T01:06:07.093Z,75.39
2023-02-23T01:08:34.761Z,75.73
2023-02-23T01:11:13.470Z,75.49
2023-02-23T01:13:42.033Z,75.41
2023-02-23T01:16:11.261Z,75.41
2023-02-23T01:18:39.269Z,75.40
2023-02-23T01:21:06.613Z,75.22
2023-02-23T01:23:33.519Z,75.30
2023-02-23T01:26:00.569Z,75.04
2023-02-23T01:28:28.018Z,75.06
2023-02-23T01:30:55.074Z,75.41
2023-02-23T01:33:22.062Z,75.47
2023-02-23T01:35:59.565Z,75.33
2023-02-23T01:38:26.679Z,75.18
2023-02-23T01:40:53.546Z,75.06
2023-02-23T01:43:27.653Z,75.14
2023-02-23T01:45:55.684Z,74.99
2023-02-23T01:48:27.403Z,74.88
2023-02-23T01:51:03.752Z,74.90
2023-02-23T01:53:34.256Z,74.90
2023-02-23T01:56:24.501Z,74.79
2023-02-23T01:58:53.217Z,74.75
2023-02-23T02:01:21.905Z,75.02
2023-02-23T02:03:51.688Z,74.91
2023-02-23T02:06:18.735Z,74.69
2023-02-23T02:08:47.557Z,74.68
2023-02-23T02:11:31.113Z,74.66
2023-02-23T02:14:03.724Z,74.72
2023-02-23T02:16:52.990Z,74.58
2023-02-23T02:20:06.405Z,74.49
2023-02-23T02:23:13.741Z,74.61
2023-02-23T02:25:54.744Z,74.59
2023-02-23T02:28:36.386Z,74.46
2023-02-23T02:31:15.733Z,74.30
2023-02-23T02:34:22.596Z,74.34
2023-02-23T02:37:20.621Z,74.46
2023-02-23T02:40:40.325Z,74.80
2023-02-23T02:43:17.722Z,74.76
2023-02-23T02:45:59.986Z,74.69
2023-02-23T02:48:42.397Z,74.68
2023-02-23T02:51:24.772Z,74.90
2023-02-23T02:54:07.374Z,75.17
2023-02-23T02:56:40.396Z,75.33
2023-02-23T02:59:29.956Z,75.43
2023-02-23T03:02:15.815Z,75.57
2023-02-23T03:05:01.304Z,75.75
2023-02-23T03:08:00.586Z,75.79
2023-02-23T03:10:52.204Z,75.77
2023-02-23T03:13:45.117Z,75.76
2023-02-23T03:16:55.434Z,75.92
2023-02-23T03:19:45.277Z,75.95
2023-02-23T03:22:40.714Z,75.85
2023-02-23T03:25:37.505Z,75.83
2023-02-23T03:28:30.299Z,75.96
2023-02-23T03:31:20.637Z,75.99
2023-02-23T03:34:22.383Z,76.02
2023-02-23T03:37:12.054Z,76.07
2023-02-23T03:40:01.123Z,76.23
2023-02-23T03:42:48.933Z,76.10
2023-02-23T03:45:36.578Z,76.16
2023-02-23T03:48:22.535Z,76.21
2023-02-23T03:51:11.929Z,76.33
2023-02-23T03:54:01.576Z,76.30
2023-02-23T03:56:47.305Z,76.29
2023-02-23T03:59:34.256Z,76.41
2023-02-23T04:02:19.994Z,76.36
2023-02-23T04:05:05.414Z,76.51
2023-02-23T04:07:51.010Z,76.67
2023-02-23T04:10:37.636Z,76.65
2023-02-23T04:13:15.738Z,76.55
2023-02-23T04:16:07.209Z,76.50
2023-02-23T04:18:35.323Z,76.54
2023-02-23T04:21:03.088Z,76.67
2023-02-23T04:23:31.108Z,76.50
2023-02-23T04:25:58.318Z,76.52
2023-02-23T04:28:27.133Z,76.65
2023-02-23T04:30:54.136Z,76.64
2023-02-23T04:33:22.262Z,76.67
2023-02-23T04:35:49.762Z,76.61
2023-02-23T04:38:17.067Z,76.75
2023-02-23T04:40:43.954Z,76.57
2023-02-23T04:43:14.772Z,76.38
2023-02-23T04:45:42.366Z,76.11
2023-02-23T04:48:09.388Z,76.17
2023-02-23T04:50:36.467Z,76.01
2023-02-23T04:53:03.608Z,76.01
2023-02-23T04:55:32.988Z,75.87
2023-02-23T04:58:01.091Z,75.67
2023-02-23T05:00:29.573Z,75.38
2023-02-23T05:02:57.685Z,75.41
2023-02-23T05:05:25.732Z,75.12
2023-02-23T05:07:53.867Z,75.11
2023-02-23T05:10:20.872Z,74.98
2023-02-23T05:12:47.987Z,74.60
2023-02-23T05:15:15.084Z,74.18
2023-02-23T05:17:42.144Z,73.98
2023-02-23T05:20:10.829Z,73.57
2023-02-23T05:22:40.524Z,72.98
2023-02-23T05:25:08.839Z,72.24
2023-02-23T05:27:36.998Z,70.40
2023-02-23T05:30:05.660Z,70.32
2023-02-23T05:32:33.102Z,70.29
2023-02-23T05:35:00.520Z,70.41
2023-02-23T05:37:27.419Z,69.70
2023-02-23T05:39:54.510Z,69.45
2023-02-23T05:42:21.490Z,68.41
2023-02-23T05:44:48.634Z,67.72
2023-02-23T05:47:15.528Z,66.34
2023-02-23T05:49:42.872Z,66.05
2023-02-23T05:52:09.849Z,65.77
2023-02-23T05:54:38.939Z,64.47
2023-02-23T05:57:05.987Z,63.93
2023-02-23T05:59:32.915Z,63.70
2023-02-23T06:02:00.090Z,63.38
2023-02-23T06:04:27.111Z,62.74
2023-02-23T06:06:54.368Z,61.98
2023-02-23T06:09:27.237Z,60.93
2023-02-23T06:11:55.857Z,59.83
2023-02-23T06:14:22.908Z,58.50
2023-02-23T06:16:50.083Z,58.57
2023-02-23T06:19:17.430Z,58.80
2023-02-23T06:21:45.118Z,59.41
2023-02-23T06:24:12.412Z,59.44
2023-02-23T06:26:39.601Z,58.42
2023-02-23T06:29:07.595Z,56.25
2023-02-23T06:31:34.772Z,54.56
2023-02-23T06:34:03.549Z,55.05
2023-02-23T06:36:31.412Z,55.48
2023-02-23T06:38:58.744Z,56.53
2023-02-23T06:41:25.987Z,56.29
2023-02-23T06:43:52.982Z,55.61
2023-02-23T06:46:21.009Z,55.79
2023-02-23T06:48:48.255Z,55.74
2023-02-23T06:51:15.167Z,53.97
2023-02-23T06:53:42.480Z,52.84
2023-02-23T06:56:10.594Z,54.60
2023-02-23T06:58:40.496Z,55.19
2023-02-23T07:01:10.197Z,53.81
2023-02-23T07:03:37.199Z,53.90
2023-02-23T07:06:06.288Z,53.07
2023-02-23T07:08:34.910Z,52.74
2023-02-23T07:11:09.029Z,52.34
2023-02-23T07:13:38.009Z,51.30
2023-02-23T07:16:06.692Z,50.13
2023-02-23T07:18:34.002Z,49.90
2023-02-23T07:21:02.605Z,48.63
2023-02-23T07:23:29.832Z,48.94
2023-02-23T07:25:58.237Z,48.54
2023-02-23T07:28:27.859Z,48.34
2023-02-23T07:30:58.699Z,48.30
2023-02-23T07:33:26.231Z,47.63
2023-02-23T07:35:53.553Z,47.98
2023-02-23T07:38:20.917Z,48.23
2023-02-23T07:40:50.466Z,47.72
2023-02-23T07:43:22.900Z,48.02
2023-02-23T07:45:51.941Z,47.91
2023-02-23T07:48:19.433Z,48.19
2023-02-23T07:50:47.504Z,48.06
2023-02-23T07:53:15.563Z,48.24
2023-02-23T07:55:42.783Z,47.55
2023-02-23T07:58:13.834Z,46.64
2023-02-23T08:00:41.639Z,46.17
2023-02-23T08:03:08.928Z,46.86
2023-02-23T08:05:37.757Z,47.14
2023-02-23T08:08:05.241Z,47.57
2023-02-23T08:10:38.526Z,46.56
2023-02-23T08:13:06.987Z,47.15
2023-02-23T08:15:39.637Z,47.52
2023-02-23T08:18:09.988Z,46.14
2023-02-23T08:20:39.127Z,46.10
2023-02-23T08:23:06.898Z,46.05
2023-02-23T08:25:35.068Z,45.96
2023-02-23T08:28:07.281Z,46.26
2023-02-23T08:30:35.934Z,46.52
2023-02-23T08:33:03.204Z,46.78
2023-02-23T08:35:31.672Z,46.66
2023-02-23T08:37:59.069Z,44.98
2023-02-23T08:40:26.724Z,45.45
2023-02-23T08:42:56.585Z,45.44
2023-02-23T08:45:23.965Z,44.35
2023-02-23T08:47:51.261Z,44.03
2023-02-23T08:50:18.536Z,44.80
2023-02-23T08:52:45.655Z,45.05
2023-02-23T08:55:16.586Z,45.75
2023-02-23T08:57:43.817Z,46.82
2023-02-23T09:00:16.790Z,47.17
2023-02-23T09:02:45.194Z,47.44
2023-02-23T09:05:12.340Z,48.27
2023-02-23T09:07:40.142Z,49.18
2023-02-23T09:10:08.620Z,50.38
2023-02-23T09:12:41.536Z,51.57
2023-02-23T09:15:09.195Z,51.88
2023-02-23T09:17:36.507Z,51.88
2023-02-23T09:20:05.109Z,52.30
2023-02-23T09:22:36.766Z,52.74
2023-02-23T09:25:05.014Z,53.04
2023-02-23T09:27:33.078Z,53.43
2023-02-23T09:30:00.121Z,53.58
2023-02-23T09:32:27.522Z,54.37
2023-02-23T09:34:54.601Z,54.64
2023-02-23T09:37:21.697Z,53.43
2023-02-23T09:39:49.499Z,53.44
2023-02-23T09:42:23.803Z,53.53
2023-02-23T09:45:27.193Z,53.25
2023-02-23T09:48:12.634Z,53.92
2023-02-23T09:50:40.614Z,54.07
2023-02-23T09:53:12.888Z,54.07
2023-02-23T09:55:41.621Z,54.38
2023-02-23T09:58:18.394Z,54.24
2023-02-23T10:00:46.488Z,54.18
2023-02-23T10:03:33.551Z,54.76
2023-02-23T10:06:06.679Z,55.28
2023-02-23T10:08:45.283Z,55.42
2023-02-23T10:11:21.195Z,55.34
2023-02-23T10:13:56.353Z,54.96
2023-02-23T10:16:30.111Z,55.42
2023-02-23T10:19:34.167Z,54.95
2023-02-23T10:22:06.546Z,54.35
2023-02-23T10:24:35.486Z,54.06
2023-02-23T10:27:16.985Z,54.11
2023-02-23T10:29:53.074Z,53.58
2023-02-23T10:32:38.747Z,54.07
2023-02-23T10:35:13.080Z,54.27
2023-02-23T10:37:40.390Z,54.02
2023-02-23T10:40:08.352Z,54.18
2023-02-23T10:42:35.397Z,53.75
2023-02-23T10:45:02.403Z,52.76
2023-02-23T10:47:31.990Z,52.67
2023-02-23T10:50:02.583Z,53.23
2023-02-23T10:52:41.320Z,53.69
2023-02-23T10:57:25.562Z,54.09
2023-02-23T11:00:00.171Z,53.96
2023-02-23T11:02:27.771Z,54.23
2023-02-23T11:04:57.514Z,54.03
2023-02-23T11:07:29.563Z,53.54
2023-02-23T11:10:01.290Z,53.41
2023-02-23T11:12:38.371Z,53.24
2023-02-23T11:15:49.453Z,53.35
2023-02-23T11:18:22.903Z,54.12
2023-02-23T11:20:50.227Z,54.31
2023-02-23T11:23:32.194Z,53.80
2023-02-23T11:26:01.409Z,54.10
2023-02-23T11:28:33.578Z,54.28
2023-02-23T11:31:04.730Z,54.20
2023-02-23T11:33:36.247Z,53.82
2023-02-23T11:36:27.022Z,54.18
2023-02-23T11:39:03.963Z,54.04
2023-02-23T11:41:35.617Z,53.86
2023-02-23T11:44:06.181Z,53.89
2023-02-23T11:46:36.830Z,54.13
2023-02-23T11:49:08.811Z,54.52
2023-02-23T11:51:37.717Z,54.25
2023-02-23T11:54:05.704Z,53.99
2023-02-23T11:56:33.835Z,53.98
2023-02-23T23:14:20.468Z,66.84
2023-02-23T23:16:48.650Z,67.07
2023-02-23T23:19:18.205Z,67.29
2023-02-23T23:21:46.178Z,67.59
2023-02-23T23:24:16.092Z,67.91
2023-02-23T23:26:44.533Z,68.54
2023-02-23T23:29:13.588Z,68.56
2023-02-23T23:31:45.386Z,68.79
2023-02-23T23:34:13.064Z,68.76
2023-02-23T23:36:49.441Z,69.00
2023-02-23T23:39:17.493Z,68.96
2023-02-23T23:41:48.180Z,68.94
2023-02-23T23:44:17.197Z,68.96
2023-02-23T23:46:45.320Z,69.03
2023-02-23T23:49:18.367Z,68.95
2023-02-23T23:51:51.136Z,68.88
2023-02-23T23:54:20.315Z,68.76
2023-02-23T23:56:47.681Z,68.52
2023-02-23T23:59:16.937Z,68.57
